sensor_id;sensor_type;location;lat;lon;timestamp;pressure;altitude;pressure_sealevel;temperature;humidity
12963;BME280;6546;49.882;8.666;2022-12-29T00:01:41;99166.03;;;10.81;100.00
12963;BME280;6546;49.882;8.666;2022-12-29T00:04:11;99157.34;;;10.88;100.00
12963;BME280;6546;49.882;8.666;2022-12-29T00:06:38;99159.03;;;10.92;100.00
12963;BME280;6546;49.882;8.666;2022-12-29T00:09:05;99164.16;;;10.95;100.00
12963;BME280;6546;49.882;8.666;2022-12-29T00:11:32;99159.03;;;10.92;100.00
12963;BME280;6546;49.882;8.666;2022-12-29T00:13:59;99146.88;;;11.01;100.00
12963;BME280;6546;49.882;8.666;2022-12-29T00:16:45;99158.03;;;11.06;100.00
12963;BME280;6546;49.882;8.666;2022-12-29T00:19:12;99156.38;;;11.00;100.00
12963;BME280;6546;49.882;8.666;2022-12-29T00:21:52;99163.31;;;10.96;100.00
12963;BME280;6546;49.882;8.666;2022-12-29T00:24:37;99157.28;;;10.94;100.00
12963;BME280;6546;49.882;8.666;2022-12-29T00:27:21;99150.28;;;11.03;100.00
12963;BME280;6546;49.882;8.666;2022-12-29T00:30:08;99164.16;;;10.95;100.00
12963;BME280;6546;49.882;8.666;2022-12-29T00:32:55;99159.84;;;10.97;100.00
12963;BME280;6546;49.882;8.666;2022-12-29T00:35:44;99161.56;;;10.97;100.00
12963;BME280;6546;49.882;8.666;2022-12-29T00:38:14;99164.09;;;11.02;100.00
12963;BME280;6546;49.882;8.666;2022-12-29T00:40:58;99177.94;;;10.97;100.00
12963;BME280;6546;49.882;8.666;2022-12-29T00:43:42;99176.19;;;10.99;100.00
12963;BME280;6546;49.882;8.666;2022-12-29T00:46:26;99161.56;;;10.97;100.00
12963;BME280;6546;49.882;8.666;2022-12-29T00:48:55;99153.91;;;10.86;100.00
12963;BME280;6546;49.882;8.666;2022-12-29T00:51:39;99160.84;;;10.84;100.00
12963;BME280;6546;49.882;8.666;2022-12-29T00:54:06;99155.72;;;10.80;100.00
12963;BME280;6546;49.882;8.666;2022-12-29T00:56:33;99165.28;;;10.74;100.00
12963;BME280;6546;49.882;8.666;2022-12-29T00:59:00;99154.03;;;10.74;100.00
12963;BME280;6546;49.882;8.666;2022-12-29T01:01:27;99158.34;;;10.77;100.00
12963;BME280;6546;49.882;8.666;2022-12-29T01:03:56;99155.78;;;10.75;100.00
12963;BME280;6546;49.882;8.666;2022-12-29T01:06:23;99150.63;;;10.72;100.00
12963;BME280;6546;49.882;8.666;2022-12-29T01:08:51;99144.56;;;10.74;100.00
12963;BME280;6546;49.882;8.666;2022-12-29T01:11:31;99145.47;;;10.70;100.00
12963;BME280;6546;49.882;8.666;2022-12-29T01:13:59;99150.59;;;10.75;100.00
12963;BME280;6546;49.882;8.666;2022-12-29T01:16:25;99144.53;;;10.79;100.00
12963;BME280;6546;49.882;8.666;2022-12-29T01:18:53;99136.69;;;10.82;100.00
12963;BME280;6546;49.882;8.666;2022-12-29T01:21:21;99145.34;;;10.81;100.00
12963;BME280;6546;49.882;8.666;2022-12-29T01:23:48;99142.78;;;10.78;100.00
12963;BME280;6546;49.882;8.666;2022-12-29T01:26:16;99133.22;;;10.86;100.00
12963;BME280;6546;49.882;8.666;2022-12-29T01:28:44;99142.69;;;10.89;100.00
12963;BME280;6546;49.882;8.666;2022-12-29T01:31:13;99134.00;;;10.93;100.00
12963;BME280;6546;49.882;8.666;2022-12-29T01:33:41;99137.44;;;10.93;100.00
12963;BME280;6546;49.882;8.666;2022-12-29T01:36:10;99122.72;;;10.98;100.00
12963;BME280;6546;49.882;8.666;2022-12-29T01:38:39;99121.88;;;10.98;100.00
12963;BME280;6546;49.882;8.666;2022-12-29T01:41:08;99123.59;;;10.97;100.00
12963;BME280;6546;49.882;8.666;2022-12-29T01:43:40;99115.81;;;10.99;100.00
12963;BME280;6546;49.882;8.666;2022-12-29T01:46:15;99110.63;;;11.01;100.00
12963;BME280;6546;49.882;8.666;2022-12-29T01:48:47;99109.75;;;11.02;100.00
12963;BME280;6546;49.882;8.666;2022-12-29T01:51:16;99104.59;;;11.00;100.00
12963;BME280;6546;49.882;8.666;2022-12-29T01:53:45;99096.81;;;11.02;100.00
12963;BME280;6546;49.882;8.666;2022-12-29T01:56:15;99106.22;;;11.07;100.00
12963;BME280;6546;49.882;8.666;2022-12-29T01:58:48;99100.13;;;11.13;100.00
12963;BME280;6546;49.882;8.666;2022-12-29T02:01:18;99100.06;;;11.17;100.00
12963;BME280;6546;49.882;8.666;2022-12-29T02:03:47;99109.53;;;11.18;100.00
12963;BME280;6546;49.882;8.666;2022-12-29T02:06:19;99095.78;;;11.15;100.00
12963;BME280;6546;49.882;8.666;2022-12-29T02:08:50;99101.75;;;11.20;100.00
12963;BME280;6546;49.882;8.666;2022-12-29T02:11:19;99091.34;;;11.23;100.00
12963;BME280;6546;49.882;8.666;2022-12-29T02:13:47;99105.94;;;11.29;100.00
12963;BME280;6546;49.882;8.666;2022-12-29T02:16:35;99102.44;;;11.33;100.00
12963;BME280;6546;49.882;8.666;2022-12-29T02:19:33;99111.03;;;11.38;100.00
12963;BME280;6546;49.882;8.666;2022-12-29T02:22:14;99109.28;;;11.38;100.00
12963;BME280;6546;49.882;8.666;2022-12-29T02:25:00;99099.75;;;11.40;100.00
12963;BME280;6546;49.882;8.666;2022-12-29T02:27:43;99103.25;;;11.36;100.00
12963;BME280;6546;49.882;8.666;2022-12-29T02:30:34;99102.38;;;11.39;100.00
12963;BME280;6546;49.882;8.666;2022-12-29T02:33:15;99102.34;;;11.42;100.00
12963;BME280;6546;49.882;8.666;2022-12-29T02:35:52;99098.06;;;11.39;100.00
12963;BME280;6546;49.882;8.666;2022-12-29T02:38:28;99095.34;;;11.47;100.00
12963;BME280;6546;49.882;8.666;2022-12-29T02:41:05;99088.38;;;11.52;100.00
12963;BME280;6546;49.882;8.666;2022-12-29T02:43:38;99078.91;;;11.49;100.00
12963;BME280;6546;49.882;8.666;2022-12-29T02:46:15;99072.88;;;11.49;100.00
12963;BME280;6546;49.882;8.666;2022-12-29T02:48:47;99085.09;;;11.39;100.00
12963;BME280;6546;49.882;8.666;2022-12-29T02:51:21;99076.50;;;11.36;100.00
12963;BME280;6546;49.882;8.666;2022-12-29T02:53:51;99078.22;;;11.37;100.00
12963;BME280;6546;49.882;8.666;2022-12-29T02:56:36;99082.66;;;11.30;100.00
12963;BME280;6546;49.882;8.666;2022-12-29T02:59:03;99086.97;;;11.28;100.00
12963;BME280;6546;49.882;8.666;2022-12-29T03:01:48;99077.41;;;11.33;100.00
12963;BME280;6546;49.882;8.666;2022-12-29T03:04:37;99071.38;;;11.34;100.00
12963;BME280;6546;49.882;8.666;2022-12-29T03:07:12;99070.47;;;11.35;100.00
12963;BME280;6546;49.882;8.666;2022-12-29T03:09:47;99068.81;;;11.31;100.00
12963;BME280;6546;49.882;8.666;2022-12-29T03:12:25;99078.34;;;11.28;100.00
12963;BME280;6546;49.882;8.666;2022-12-29T03:15:18;99067.09;;;11.30;100.00
12963;BME280;6546;49.882;8.666;2022-12-29T03:18:12;99067.94;;;11.34;100.00
12963;BME280;6546;49.882;8.666;2022-12-29T03:20:46;99068.78;;;11.34;100.00
12963;BME280;6546;49.882;8.666;2022-12-29T03:23:14;99068.75;;;11.36;100.00
12963;BME280;6546;49.882;8.666;2022-12-29T03:25:45;99074.00;;;11.31;100.00
12963;BME280;6546;49.882;8.666;2022-12-29T03:28:18;99059.41;;;11.24;100.00
12963;BME280;6546;49.882;8.666;2022-12-29T03:30:48;99053.38;;;11.25;100.00
12963;BME280;6546;49.882;8.666;2022-12-29T03:33:21;99052.56;;;11.20;100.00
12963;BME280;6546;49.882;8.666;2022-12-29T03:35:50;99048.31;;;11.16;100.00
12963;BME280;6546;49.882;8.666;2022-12-29T03:38:23;99040.53;;;11.17;100.00
12963;BME280;6546;49.882;8.666;2022-12-29T03:40:58;99048.19;;;11.25;100.00
12963;BME280;6546;49.882;8.666;2022-12-29T03:43:26;99049.19;;;11.15;100.00
12963;BME280;6546;49.882;8.666;2022-12-29T03:45:54;99050.84;;;11.19;100.00
12963;BME280;6546;49.882;8.666;2022-12-29T03:48:23;99045.69;;;11.19;100.00
12963;BME280;6546;49.882;8.666;2022-12-29T03:50:50;99040.47;;;11.22;100.00
12963;BME280;6546;49.882;8.666;2022-12-29T03:53:16;99055.97;;;11.25;100.00
12963;BME280;6546;49.882;8.666;2022-12-29T03:55:43;99044.63;;;11.32;100.00
12963;BME280;6546;49.882;8.666;2022-12-29T03:58:10;99048.91;;;11.35;100.00
12963;BME280;6546;49.882;8.666;2022-12-29T04:00:37;99046.28;;;11.36;100.00
12963;BME280;6546;49.882;8.666;2022-12-29T04:03:04;99037.59;;;11.40;100.00
12963;BME280;6546;49.882;8.666;2022-12-29T04:05:32;99023.03;;;11.33;100.00
12963;BME280;6546;49.882;8.666;2022-12-29T04:07:59;99032.53;;;11.34;100.00
12963;BME280;6546;49.882;8.666;2022-12-29T04:10:26;99028.16;;;11.38;100.00
12963;BME280;6546;49.882;8.666;2022-12-29T04:12:53;99032.53;;;11.34;100.00
12963;BME280;6546;49.882;8.666;2022-12-29T04:15:20;99025.63;;;11.33;100.00
12963;BME280;6546;49.882;8.666;2022-12-29T04:17:46;99025.63;;;11.33;100.00
12963;BME280;6546;49.882;8.666;2022-12-29T04:20:14;99029.09;;;11.34;100.00
12963;BME280;6546;49.882;8.666;2022-12-29T04:23:01;99022.25;;;11.28;100.00
12963;BME280;6546;49.882;8.666;2022-12-29T04:25:28;99022.97;;;11.38;100.00
12963;BME280;6546;49.882;8.666;2022-12-29T04:27:56;99025.69;;;11.30;100.00
12963;BME280;6546;49.882;8.666;2022-12-29T04:30:24;99015.22;;;11.36;100.00
12963;BME280;6546;49.882;8.666;2022-12-29T04:32:51;99022.16;;;11.34;100.00
12963;BME280;6546;49.882;8.666;2022-12-29T04:35:18;99022.13;;;11.36;100.00
12963;BME280;6546;49.882;8.666;2022-12-29T04:37:47;99019.59;;;11.33;100.00
12963;BME280;6546;49.882;8.666;2022-12-29T04:40:16;99032.53;;;11.34;100.00
12963;BME280;6546;49.882;8.666;2022-12-29T04:42:43;99022.91;;;11.42;100.00
12963;BME280;6546;49.882;8.666;2022-12-29T04:45:10;99025.53;;;11.39;100.00
12963;BME280;6546;49.882;8.666;2022-12-29T04:47:38;99023.75;;;11.41;100.00
12963;BME280;6546;49.882;8.666;2022-12-29T04:50:05;99025.47;;;11.44;100.00
12963;BME280;6546;49.882;8.666;2022-12-29T04:52:32;99028.88;;;11.47;100.00
12963;BME280;6546;49.882;8.666;2022-12-29T04:55:00;99027.28;;;11.39;100.00
12963;BME280;6546;49.882;8.666;2022-12-29T04:57:28;99027.25;;;11.40;100.00
12963;BME280;6546;49.882;8.666;2022-12-29T04:59:55;99031.59;;;11.38;100.00
12963;BME280;6546;49.882;8.666;2022-12-29T05:02:23;99023.69;;;11.46;100.00
12963;BME280;6546;49.882;8.666;2022-12-29T05:04:49;99027.09;;;11.49;100.00
12963;BME280;6546;49.882;8.666;2022-12-29T05:07:17;99020.13;;;11.55;100.00
12963;BME280;6546;49.882;8.666;2022-12-29T05:09:44;99023.59;;;11.54;100.00
12963;BME280;6546;49.882;8.666;2022-12-29T05:12:11;99035.75;;;11.48;100.00
12963;BME280;6546;49.882;8.666;2022-12-29T05:14:39;99040.19;;;11.42;100.00
12963;BME280;6546;49.882;8.666;2022-12-29T05:17:06;99040.13;;;11.45;100.00
12963;BME280;6546;49.882;8.666;2022-12-29T05:19:34;99037.38;;;11.54;100.00
12963;BME280;6546;49.882;8.666;2022-12-29T05:22:02;99040.84;;;11.55;100.00
12963;BME280;6546;49.882;8.666;2022-12-29T05:24:29;99044.28;;;11.57;100.00
12963;BME280;6546;49.882;8.666;2022-12-29T05:26:57;99044.31;;;11.54;100.00
12963;BME280;6546;49.882;8.666;2022-12-29T05:29:23;99027.06;;;11.53;100.00
12963;BME280;6546;49.882;8.666;2022-12-29T05:31:52;99034.78;;;11.54;100.00
12963;BME280;6546;49.882;8.666;2022-12-29T05:34:20;99029.56;;;11.57;100.00
12963;BME280;6546;49.882;8.666;2022-12-29T05:36:46;99039.78;;;11.66;100.00
12963;BME280;6546;49.882;8.666;2022-12-29T05:39:13;99020.88;;;11.61;100.00
12963;BME280;6546;49.882;8.666;2022-12-29T05:41:41;99031.16;;;11.66;100.00
12963;BME280;6546;49.882;8.666;2022-12-29T05:44:09;99021.69;;;11.65;100.00
12963;BME280;6546;49.882;8.666;2022-12-29T05:46:37;99012.22;;;11.62;100.00
12963;BME280;6546;49.882;8.666;2022-12-29T05:49:06;99013.09;;;11.61;100.00
12963;BME280;6546;49.882;8.666;2022-12-29T05:51:33;99013.16;;;11.60;100.00
12963;BME280;6546;49.882;8.666;2022-12-29T05:54:01;99008.78;;;11.62;100.00
12963;BME280;6546;49.882;8.666;2022-12-29T05:56:28;99011.44;;;11.57;100.00
12963;BME280;6546;49.882;8.666;2022-12-29T05:58:55;98995.97;;;11.53;100.00
12963;BME280;6546;49.882;8.666;2022-12-29T06:01:21;98993.34;;;11.54;100.00
12963;BME280;6546;49.882;8.666;2022-12-29T06:03:48;98994.94;;;11.63;100.00
12963;BME280;6546;49.882;8.666;2022-12-29T06:06:19;98988.09;;;11.60;100.00
12963;BME280;6546;49.882;8.666;2022-12-29T06:08:45;98999.25;;;11.64;100.00
12963;BME280;6546;49.882;8.666;2022-12-29T06:11:12;99000.94;;;11.68;100.00
12963;BME280;6546;49.882;8.666;2022-12-29T06:13:39;98997.47;;;11.66;100.00
12963;BME280;6546;49.882;8.666;2022-12-29T06:16:08;98992.22;;;11.70;100.00
12963;BME280;6546;49.882;8.666;2022-12-29T06:18:36;99004.38;;;11.67;100.00
12963;BME280;6546;49.882;8.666;2022-12-29T06:21:04;99001.81;;;11.65;100.00
12963;BME280;6546;49.882;8.666;2022-12-29T06:23:33;99007.84;;;11.66;100.00
12963;BME280;6546;49.882;8.666;2022-12-29T06:26:00;99001.78;;;11.67;100.00
12963;BME280;6546;49.882;8.666;2022-12-29T06:28:27;99004.38;;;11.68;100.00
12963;BME280;6546;49.882;8.666;2022-12-29T06:30:54;99003.53;;;11.66;100.00
12963;BME280;6546;49.882;8.666;2022-12-29T06:33:21;98999.22;;;11.65;100.00
12963;BME280;6546;49.882;8.666;2022-12-29T06:35:48;99000.97;;;11.65;100.00
12963;BME280;6546;49.882;8.666;2022-12-29T06:38:15;99008.78;;;11.62;100.00
12963;BME280;6546;49.882;8.666;2022-12-29T06:40:44;99016.56;;;11.62;100.00
12963;BME280;6546;49.882;8.666;2022-12-29T06:43:11;99013.19;;;11.57;100.00
12963;BME280;6546;49.882;8.666;2022-12-29T06:45:39;99011.28;;;11.68;100.00
12963;BME280;6546;49.882;8.666;2022-12-29T06:48:06;99014.03;;;11.59;100.00
12963;BME280;6546;49.882;8.666;2022-12-29T06:50:35;99018.38;;;11.57;100.00
12963;BME280;6546;49.882;8.666;2022-12-29T06:53:02;99022.63;;;11.61;100.00
12963;BME280;6546;49.882;8.666;2022-12-29T06:55:29;99011.44;;;11.59;100.00
12963;BME280;6546;49.882;8.666;2022-12-29T06:57:58;99003.63;;;11.60;100.00
12963;BME280;6546;49.882;8.666;2022-12-29T07:00:26;99022.53;;;11.65;100.00
12963;BME280;6546;49.882;8.666;2022-12-29T07:02:54;99005.50;;;11.52;100.00
12963;BME280;6546;49.882;8.666;2022-12-29T07:05:23;99008.13;;;11.51;100.00
12963;BME280;6546;49.882;8.666;2022-12-29T07:07:50;99012.41;;;11.50;100.00
12963;BME280;6546;49.882;8.666;2022-12-29T07:10:17;99014.09;;;11.53;100.00
12963;BME280;6546;49.882;8.666;2022-12-29T07:12:45;99009.72;;;11.58;100.00
12963;BME280;6546;49.882;8.666;2022-12-29T07:15:14;99021.69;;;11.65;100.00
12963;BME280;6546;49.882;8.666;2022-12-29T07:17:41;99018.38;;;11.57;100.00
12963;BME280;6546;49.882;8.666;2022-12-29T07:20:09;99018.31;;;11.60;100.00
12963;BME280;6546;49.882;8.666;2022-12-29T07:22:36;99023.44;;;11.63;100.00
12963;BME280;6546;49.882;8.666;2022-12-29T07:25:04;99027.72;;;11.65;100.00
12963;BME280;6546;49.882;8.666;2022-12-29T07:27:31;99028.63;;;11.63;100.00
12963;BME280;6546;49.882;8.666;2022-12-29T07:30:00;99037.28;;;11.62;100.00
12963;BME280;6546;49.882;8.666;2022-12-29T07:32:32;99038.94;;;11.66;100.00
12963;BME280;6546;49.882;8.666;2022-12-29T07:34:59;99038.13;;;11.64;100.00
12963;BME280;6546;49.882;8.666;2022-12-29T07:37:26;99040.59;;;11.70;100.00
12963;BME280;6546;49.882;8.666;2022-12-29T07:39:53;99046.66;;;11.69;100.00
12963;BME280;6546;49.882;8.666;2022-12-29T07:42:20;99049.31;;;11.66;100.00
12963;BME280;6546;49.882;8.666;2022-12-29T07:44:47;99043.31;;;11.64;100.00
12963;BME280;6546;49.882;8.666;2022-12-29T07:47:14;99045.81;;;11.67;100.00
12963;BME280;6546;49.882;8.666;2022-12-29T07:49:42;99045.97;;;11.58;100.00
12963;BME280;6546;49.882;8.666;2022-12-29T07:52:09;99042.47;;;11.62;100.00
12963;BME280;6546;49.882;8.666;2022-12-29T07:54:37;99045.03;;;11.63;100.00
12963;BME280;6546;49.882;8.666;2022-12-29T07:57:05;99057.97;;;11.65;100.00
12963;BME280;6546;49.882;8.666;2022-12-29T07:59:32;99055.50;;;11.56;100.00
12963;BME280;6546;49.882;8.666;2022-12-29T08:01:58;99059.66;;;11.66;100.00
12963;BME280;6546;49.882;8.666;2022-12-29T08:04:25;99060.47;;;11.69;100.00
12963;BME280;6546;49.882;8.666;2022-12-29T08:06:55;99067.44;;;11.66;100.00
12963;BME280;6546;49.882;8.666;2022-12-29T08:09:22;99066.66;;;11.61;100.00
12963;BME280;6546;49.882;8.666;2022-12-29T08:11:49;99054.44;;;11.69;100.00
12963;BME280;6546;49.882;8.666;2022-12-29T08:14:16;99071.69;;;11.70;100.00
12963;BME280;6546;49.882;8.666;2022-12-29T08:16:43;99057.00;;;11.72;100.00
12963;BME280;6546;49.882;8.666;2022-12-29T08:19:10;99057.84;;;11.71;100.00
12963;BME280;6546;49.882;8.666;2022-12-29T08:21:37;99064.00;;;11.65;100.00
12963;BME280;6546;49.882;8.666;2022-12-29T08:24:06;99070.00;;;11.69;100.00
12963;BME280;6546;49.882;8.666;2022-12-29T08:26:35;99062.09;;;11.75;100.00
12963;BME280;6546;49.882;8.666;2022-12-29T08:29:02;99060.44;;;11.72;100.00
12963;BME280;6546;49.882;8.666;2022-12-29T08:31:28;99062.03;;;11.80;100.00
12963;BME280;6546;49.882;8.666;2022-12-29T08:33:56;99071.50;;;11.85;100.00
12963;BME280;6546;49.882;8.666;2022-12-29T08:36:25;99068.88;;;11.88;100.00
12963;BME280;6546;49.882;8.666;2022-12-29T08:38:52;99064.59;;;11.84;100.00
12963;BME280;6546;49.882;8.666;2022-12-29T08:41:20;99067.97;;;11.89;100.00
12963;BME280;6546;49.882;8.666;2022-12-29T08:43:47;99073.16;;;11.89;100.00
12963;BME280;6546;49.882;8.666;2022-12-29T08:46:14;99077.47;;;11.90;100.00
12963;BME280;6546;49.882;8.666;2022-12-29T08:48:43;99069.72;;;11.87;100.00
12963;BME280;6546;49.882;8.666;2022-12-29T08:51:10;99077.50;;;11.87;100.00
12963;BME280;6546;49.882;8.666;2022-12-29T08:53:37;99067.06;;;11.92;100.00
12963;BME280;6546;49.882;8.666;2022-12-29T08:56:06;99066.16;;;11.94;100.00
12963;BME280;6546;49.882;8.666;2022-12-29T08:58:36;99074.00;;;11.90;100.00
12963;BME280;6546;49.882;8.666;2022-12-29T09:01:04;99074.88;;;11.90;100.00
12963;BME280;6546;49.882;8.666;2022-12-29T09:03:30;99073.94;;;11.94;100.00
12963;BME280;6546;49.882;8.666;2022-12-29T09:05:57;99068.78;;;11.93;100.00
12963;BME280;6546;49.882;8.666;2022-12-29T09:08:24;99073.06;;;11.95;100.00
12963;BME280;6546;49.882;8.666;2022-12-29T09:10:52;99074.88;;;11.90;100.00
12963;BME280;6546;49.882;8.666;2022-12-29T09:13:20;99084.41;;;11.88;100.00
12963;BME280;6546;49.882;8.666;2022-12-29T09:15:55;99097.41;;;11.84;100.00
12963;BME280;6546;49.882;8.666;2022-12-29T09:18:23;99075.84;;;11.83;100.00
12963;BME280;6546;49.882;8.666;2022-12-29T09:20:55;99080.16;;;11.81;100.00
12963;BME280;6546;49.882;8.666;2022-12-29T09:23:22;99074.81;;;11.93;100.00
12963;BME280;6546;49.882;8.666;2022-12-29T09:25:49;99084.41;;;11.88;100.00
12963;BME280;6546;49.882;8.666;2022-12-29T09:28:16;99085.34;;;11.84;100.00
12963;BME280;6546;49.882;8.666;2022-12-29T09:30:44;99087.72;;;11.96;100.00
12963;BME280;6546;49.882;8.666;2022-12-29T09:33:13;99075.56;;;12.00;100.00
12963;BME280;6546;49.882;8.666;2022-12-29T09:35:41;99086.59;;;12.13;100.00
12963;BME280;6546;49.882;8.666;2022-12-29T09:38:09;99098.69;;;12.12;100.00
12963;BME280;6546;49.882;8.666;2022-12-29T09:40:38;99090.75;;;12.21;100.00
12963;BME280;6546;49.882;8.666;2022-12-29T09:43:15;99092.38;;;12.29;100.00
12963;BME280;6546;49.882;8.666;2022-12-29T09:45:49;99104.28;;;12.40;100.00
12963;BME280;6546;49.882;8.666;2022-12-29T09:48:22;99101.63;;;12.43;100.00
12963;BME280;6546;49.882;8.666;2022-12-29T09:50:55;99103.16;;;12.54;100.00
12963;BME280;6546;49.882;8.666;2022-12-29T09:53:28;99101.25;;;12.63;100.00
12963;BME280;6546;49.882;8.666;2022-12-29T09:55:58;99090.78;;;12.68;100.00
12963;BME280;6546;49.882;8.666;2022-12-29T09:58:29;99106.22;;;12.76;100.00
12963;BME280;6546;49.882;8.666;2022-12-29T10:01:01;99096.78;;;12.71;100.00
12963;BME280;6546;49.882;8.666;2022-12-29T10:03:40;99092.44;;;12.72;100.00
12963;BME280;6546;49.882;8.666;2022-12-29T10:06:13;99088.09;;;12.74;100.00
12963;BME280;6546;49.882;8.666;2022-12-29T10:08:46;99088.81;;;12.81;100.00
12963;BME280;6546;49.882;8.666;2022-12-29T10:11:23;99083.47;;;12.88;100.00
12963;BME280;6546;49.882;8.666;2022-12-29T10:14:16;99083.28;;;12.97;100.00
12963;BME280;6546;49.882;8.666;2022-12-29T10:16:51;99092.69;;;13.03;100.00
12963;BME280;6546;49.882;8.666;2022-12-29T10:19:52;99104.75;;;13.06;100.00
12963;BME280;6546;49.882;8.666;2022-12-29T10:22:32;99106.41;;;13.10;100.00
12963;BME280;6546;49.882;8.666;2022-12-29T10:25:10;99124.66;;;13.07;100.00
12963;BME280;6546;49.882;8.666;2022-12-29T10:27:39;99126.53;;;12.98;100.00
12963;BME280;6546;49.882;8.666;2022-12-29T10:30:11;99134.44;;;12.92;100.00
12963;BME280;6546;49.882;8.666;2022-12-29T10:32:44;99156.31;;;12.79;100.00
12963;BME280;6546;49.882;8.666;2022-12-29T10:35:18;99177.34;;;12.64;100.00
12963;BME280;6546;49.882;8.666;2022-12-29T10:37:49;99163.78;;;12.49;100.00
12963;BME280;6546;49.882;8.666;2022-12-29T10:40:23;99162.47;;;12.24;100.00
12963;BME280;6546;49.882;8.666;2022-12-29T10:42:53;99180.25;;;11.91;100.00
12963;BME280;6546;49.882;8.666;2022-12-29T10:45:23;99170.97;;;11.73;100.00
12963;BME280;6546;49.882;8.666;2022-12-29T10:47:54;99158.97;;;11.66;100.00
12963;BME280;6546;49.882;8.666;2022-12-29T10:50:25;99170.19;;;11.67;100.00
12963;BME280;6546;49.882;8.666;2022-12-29T10:52:54;99162.47;;;11.62;100.00
12963;BME280;6546;49.882;8.666;2022-12-29T10:55:26;99168.53;;;11.61;100.00
12963;BME280;6546;49.882;8.666;2022-12-29T10:57:55;99169.44;;;11.60;100.00
12963;BME280;6546;49.882;8.666;2022-12-29T11:00:25;99174.53;;;11.65;100.00
12963;BME280;6546;49.882;8.666;2022-12-29T11:03:21;99172.88;;;11.61;100.00
12963;BME280;6546;49.882;8.666;2022-12-29T11:05:57;99163.41;;;11.60;100.00
12963;BME280;6546;49.882;8.666;2022-12-29T11:08:30;99172.22;;;11.45;100.00
12963;BME280;6546;49.882;8.666;2022-12-29T11:11:01;99170.44;;;11.48;100.00
12963;BME280;6546;49.882;8.666;2022-12-29T11:13:30;99174.78;;;11.45;100.00
12963;BME280;6546;49.882;8.666;2022-12-29T11:15:57;99173.94;;;11.44;100.00
12963;BME280;6546;49.882;8.666;2022-12-29T11:18:26;99187.69;;;11.49;100.00
12963;BME280;6546;49.882;8.666;2022-12-29T11:20:58;99187.69;;;11.49;100.00
12963;BME280;6546;49.882;8.666;2022-12-29T11:23:30;99195.47;;;11.51;100.00
12963;BME280;6546;49.882;8.666;2022-12-29T11:26:22;99202.34;;;11.52;100.00
12963;BME280;6546;49.882;8.666;2022-12-29T11:29:09;99205.75;;;11.54;100.00
12963;BME280;6546;49.882;8.666;2022-12-29T11:31:43;99205.84;;;11.48;100.00
12963;BME280;6546;49.882;8.666;2022-12-29T11:34:17;99211.97;;;11.42;100.00
12963;BME280;6546;49.882;8.666;2022-12-29T11:36:46;99218.00;;;11.41;100.00
12963;BME280;6546;49.882;8.666;2022-12-29T11:39:30;99209.53;;;11.29;100.00
12963;BME280;6546;49.882;8.666;2022-12-29T11:41:59;99212.97;;;11.31;100.00
12963;BME280;6546;49.882;8.666;2022-12-29T11:44:35;99200.00;;;11.32;100.00
12963;BME280;6546;49.882;8.666;2022-12-29T11:47:05;99199.97;;;11.35;100.00
12963;BME280;6546;49.882;8.666;2022-12-29T11:49:35;99186.97;;;11.38;100.00
12963;BME280;6546;49.882;8.666;2022-12-29T11:52:04;99190.41;;;11.42;100.00
12963;BME280;6546;49.882;8.666;2022-12-29T11:54:37;99178.25;;;11.45;100.00
12963;BME280;6546;49.882;8.666;2022-12-29T11:57:10;99179.13;;;11.44;100.00
12963;BME280;6546;49.882;8.666;2022-12-29T11:59:41;99173.09;;;11.44;100.00
12963;BME280;6546;49.882;8.666;2022-12-29T12:02:23;99181.69;;;11.46;100.00
12963;BME280;6546;49.882;8.666;2022-12-29T12:04:56;99177.31;;;11.49;100.00
12963;BME280;6546;49.882;8.666;2022-12-29T12:07:36;99194.59;;;11.51;100.00
12963;BME280;6546;49.882;8.666;2022-12-29T12:10:06;99184.25;;;11.51;100.00
12963;BME280;6546;49.882;8.666;2022-12-29T12:12:44;99198.91;;;11.50;100.00
12963;BME280;6546;49.882;8.666;2022-12-29T12:15:20;99187.78;;;11.43;100.00
12963;BME280;6546;49.882;8.666;2022-12-29T12:17:53;99192.09;;;11.41;100.00
12963;BME280;6546;49.882;8.666;2022-12-29T12:20:24;99184.31;;;11.44;100.00
12963;BME280;6546;49.882;8.666;2022-12-29T12:23:01;99185.25;;;11.39;100.00
12963;BME280;6546;49.882;8.666;2022-12-29T12:25:40;99180.91;;;11.39;100.00
12963;BME280;6546;49.882;8.666;2022-12-29T12:28:13;99169.63;;;11.45;100.00
12963;BME280;6546;49.882;8.666;2022-12-29T12:30:45;99162.59;;;11.53;100.00
12963;BME280;6546;49.882;8.666;2022-12-29T12:33:18;99160.03;;;11.55;100.00
12963;BME280;6546;49.882;8.666;2022-12-29T12:36:03;99166.88;;;11.59;100.00
12963;BME280;6546;49.882;8.666;2022-12-29T12:38:44;99170.28;;;11.61;100.00
12963;BME280;6546;49.882;8.666;2022-12-29T12:41:19;99169.34;;;11.66;100.00
12963;BME280;6546;49.882;8.666;2022-12-29T12:43:52;99165.81;;;11.70;100.00
12963;BME280;6546;49.882;8.666;2022-12-29T12:46:46;99166.63;;;11.74;100.00
12963;BME280;6546;49.882;8.666;2022-12-29T12:50:02;99170.13;;;11.73;100.00
12963;BME280;6546;49.882;8.666;2022-12-29T12:52:44;99172.72;;;11.73;100.00
12963;BME280;6546;49.882;8.666;2022-12-29T12:55:30;99175.28;;;11.74;100.00
12963;BME280;6546;49.882;8.666;2022-12-29T12:58:05;99173.59;;;11.70;100.00
12963;BME280;6546;49.882;8.666;2022-12-29T13:00:42;99165.88;;;11.67;100.00
12963;BME280;6546;49.882;8.666;2022-12-29T13:03:16;99169.38;;;11.65;100.00
12963;BME280;6546;49.882;8.666;2022-12-29T13:06:13;99169.41;;;11.62;100.00
12963;BME280;6546;49.882;8.666;2022-12-29T13:09:03;99166.81;;;11.62;100.00
12963;BME280;6546;49.882;8.666;2022-12-29T13:11:48;99167.66;;;11.64;100.00
12963;BME280;6546;49.882;8.666;2022-12-29T13:14:28;99171.94;;;11.68;100.00
12963;BME280;6546;49.882;8.666;2022-12-29T13:17:04;99172.88;;;11.61;100.00
12963;BME280;6546;49.882;8.666;2022-12-29T13:19:37;99177.97;;;11.67;100.00
12963;BME280;6546;49.882;8.666;2022-12-29T13:22:13;99177.03;;;11.71;100.00
12963;BME280;6546;49.882;8.666;2022-12-29T13:24:53;99176.25;;;11.66;100.00